Craig Municipal Airport
KCRG : now visible

Airfield :











YOU CAN JOIN US ON...

 
LOGIN :

Register | Disclaimer

   EN    FR    IT 

 









Legend :    VFR   Marginal VFR   IFR   Intensive IFR   Very Intensive IFR
Visi :
Ceiling :
>= 8 km
>= 3000ft
5 to 8 km
1000 to 3000 ft
1500m to 5 km
500 to 1000 ft
800 to 1500m
200 to 500 ft
< 800m
< 200 ft
Symbols :   Thunderstorms  Fog  Heavy snow  Heavy precipitations  Wind > 20 kt






- Airport Elevation : 41 ft


KCRG - Craig Municipal

CURRENT METAR :
  • 021926Z 35016G28KT 10SM TS SCT036 OVC046 28/22 A3001 RMK AO2 PK WND 01029/1921 LTG DSNT ALQDS TSB20 PRESRR T02830217

EXPIRED METARs :
  • 021907Z 19006KT 10SM VCTS BKN046 BKN055 33/23 A2996 RMK AO2 LTG DSNT ALQDS T03330233
  • 021853Z 22006KT 10SM SCT047 33/23 A2995 RMK AO2 LTG DSNT ALQDS SLP142 T03330228
  • 021753Z 32006KT 10SM FEW041 33/23 A2998 RMK AO2 SLP151 T03330233 10339 20250 58014
  • 021653Z 24007KT 10SM SCT034 32/24 A3000 RMK AO2 SLP159 T03220239

TAF KCRG
Valid from the 02 at 19:00 until the 03 at 18:00 UTC


021917Z 0219/0318 30008KT P6SM VCTS SCT035CB BKN150
TEMPO 0219/0223 VRB18G30KT 3SM TSRA BKN030CB
FM030200 21006KT P6SM -SHRA SCT020 BKN090
FM030600 VRB04KT P6SM VCSH SCT025 OVC100
FM031300 24008KT 6SM -SHRA VCTS SCT015 BKN025CB
KZJX FIR / North America



MET'MAP, your aeronautical weather chart ! - Copyright ORBIFLY December 2007 - Disclaimer

ORBIFLY MET'MAP TEAM :

Programming & Development : Alexandra Zaïnal
Concept & original design : Baudouin d'Aumeries
Assistance for programming : Marc-Olivier Méhu
Technical & hardware support : Manuel Goepfert

Contact : metmap@orbifly.com




SOURCES & CREDITS :

   NOAA       Earth
Advisory